Minto, Canada
Current Conditions -  °F | °C
As of 3:00 PM on Monday 22 Dec 2014 (Local Time) from CYBR Reporting Station
Haze Haze  
Wind Chill: 19°   Ceiling: 400
Heat Index: 30°   Visibility: 4mi
Dew Point: 30°   Wind: 16mph
Humidity: 100%   Direction: 50°NE
Pressure: 29.67"   Gusts: NA
Location:  49.4°N, 100.02°W
Report Text: CYBR 222100Z 05014KT 4SM BR OVC004 M01/M01 A2967 RMK ST8 CIG VRB 3-5 SLP070
Loading
Personal Weather Stations






























Interactive Weather Map New forecast layout! Learn more

10-Day Weather Forecast

Advertisements
Track Severe Weather on mobile